createdAt,value
2019-01-12T00:00:01.875Z,5.87
2019-01-12T00:05:01.181Z,5.84
2019-01-12T00:15:01.805Z,5.79
2019-01-12T00:20:02.046Z,5.78
2019-01-12T00:25:01.328Z,5.76
2019-01-12T00:30:01.726Z,5.78
2019-01-12T00:35:02.054Z,5.75
2019-01-12T00:40:01.354Z,5.61
2019-01-12T00:45:01.647Z,5.71
2019-01-12T00:50:01.913Z,5.7
2019-01-12T00:55:01.173Z,5.61
2019-01-12T01:00:01.550Z,5.49
2019-01-12T01:05:01.889Z,5.49
2019-01-12T01:10:01.157Z,5.6
2019-01-12T01:15:01.418Z,5.53
2019-01-12T01:20:01.759Z,5.43
2019-01-12T01:25:02.026Z,5.43
2019-01-12T01:30:01.266Z,5.45
2019-01-12T01:35:01.564Z,5.59
2019-01-12T01:40:01.871Z,5.41
2019-01-12T01:45:01.112Z,5.41
2019-01-12T01:50:01.502Z,5.4
2019-01-12T01:55:01.782Z,5.39
2019-01-12T02:00:02.066Z,5.36
2019-01-12T02:05:01.527Z,5.33
2019-01-12T02:10:01.781Z,5.31
2019-01-12T02:15:02.025Z,5.34
2019-01-12T02:20:01.362Z,5.39
2019-01-12T02:25:01.762Z,5.49
2019-01-12T02:30:02.013Z,5.38
2019-01-12T02:35:01.445Z,5.37
2019-01-12T02:40:01.739Z,5.36
2019-01-12T02:45:02.023Z,5.37
2019-01-12T02:50:01.270Z,5.38
2019-01-12T02:55:08.425Z,5.37
2019-01-12T03:00:01.484Z,5.38
2019-01-12T03:05:01.876Z,5.48
2019-01-12T03:10:01.145Z,5.5
2019-01-12T03:15:01.448Z,5.47
2019-01-12T03:20:01.813Z,5.45
2019-01-12T03:25:02.061Z,5.35
2019-01-12T03:30:01.308Z,5.46
2019-01-12T03:35:01.593Z,5.34
2019-01-12T03:40:01.241Z,5.35
2019-01-12T03:45:01.562Z,5.33
2019-01-12T03:50:01.869Z,5.31
2019-01-12T03:55:01.142Z,5.28
2019-01-12T04:00:01.433Z,5.31
2019-01-12T04:05:01.745Z,5.28
2019-01-12T04:10:02.001Z,5.21
2019-01-12T04:15:01.328Z,5.21
2019-01-12T04:20:01.627Z,5.23
2019-01-12T04:25:01.911Z,5.24
2019-01-12T04:30:01.202Z,5.39
2019-01-12T04:35:01.490Z,5.4
2019-01-12T04:40:01.786Z,5.34
2019-01-12T04:45:02.047Z,5.34
2019-01-12T04:50:01.319Z,5.28
2019-01-12T04:55:01.605Z,5.32
2019-01-12T05:00:01.878Z,5.31
2019-01-12T05:05:01.178Z,5.28
2019-01-12T05:10:01.552Z,5.18
2019-01-12T05:15:01.860Z,5.17
2019-01-12T05:20:01.133Z,5.17
2019-01-12T05:25:01.458Z,5.21
2019-01-12T05:30:01.718Z,5.15
2019-01-12T05:35:02.036Z,5.11
2019-01-12T05:40:01.838Z,5.09
2019-01-12T05:45:01.170Z,5.09
2019-01-12T05:50:01.522Z,5.06
2019-01-12T05:55:01.810Z,5.06
2019-01-12T06:00:01.103Z,5.02
2019-01-12T06:05:01.418Z,5.02
2019-01-12T06:10:01.671Z,5.02
2019-01-12T06:15:01.956Z,5
2019-01-12T06:20:01.212Z,4.98
2019-01-12T06:25:01.532Z,4.98
2019-01-12T06:30:01.806Z,4.93
2019-01-12T06:35:01.104Z,5
2019-01-12T06:40:01.388Z,4.95
2019-01-12T06:45:01.677Z,4.73
2019-01-12T06:50:02.018Z,4.75
2019-01-12T06:55:01.262Z,4.63
2019-01-12T07:00:01.554Z,4.62
2019-01-12T07:05:01.871Z,4.77
2019-01-12T07:10:01.105Z,4.54
2019-01-12T07:15:01.394Z,4.58
2019-01-12T07:20:01.723Z,4.61
2019-01-12T07:25:02.005Z,4.57
2019-01-12T07:30:01.256Z,4.57
2019-01-12T07:35:01.572Z,4.54
2019-01-12T07:40:01.867Z,4.59
2019-01-12T07:45:01.160Z,4.57
2019-01-12T07:50:01.461Z,4.57
2019-01-12T07:55:01.749Z,4.59
2019-01-12T08:00:02.296Z,4.64
2019-01-12T08:05:01.589Z,4.68
2019-01-12T08:10:01.832Z,4.77
2019-01-12T08:15:01.110Z,4.54
2019-01-12T08:20:01.493Z,4.59
2019-01-12T08:25:01.758Z,4.59
2019-01-12T08:30:02.011Z,4.65
2019-01-12T08:35:01.270Z,4.73
2019-01-12T08:40:01.592Z,4.73
2019-01-12T08:45:01.891Z,4.77
2019-01-12T08:50:01.165Z,4.81
2019-01-12T08:55:01.463Z,4.83
2019-01-12T09:00:01.778Z,4.87
2019-01-12T09:05:02.064Z,4.93
2019-01-12T09:10:01.291Z,4.97
2019-01-12T09:15:01.575Z,5.03
2019-01-12T09:20:01.875Z,5.03
2019-01-12T09:25:01.193Z,5
2019-01-12T09:30:01.480Z,5.04
2019-01-12T09:35:01.792Z,5.03
2019-01-12T09:40:02.188Z,5.07
2019-01-12T09:45:01.448Z,5.05
2019-01-12T09:50:01.732Z,5.09
2019-01-12T09:55:01.995Z,5.15
2019-01-12T10:00:01.246Z,5.2
2019-01-12T10:05:01.552Z,5.21
2019-01-12T10:10:01.788Z,5.22
2019-01-12T10:15:02.049Z,5.3
2019-01-12T10:20:01.328Z,5.36
2019-01-12T10:25:01.630Z,5.39
2019-01-12T10:30:01.906Z,5.4
2019-01-12T10:35:01.224Z,5.4
2019-01-12T10:40:01.521Z,5.39
2019-01-12T10:45:01.799Z,5.38
2019-01-12T10:50:01.654Z,5.4
2019-01-12T10:55:02.070Z,5.4
2019-01-12T11:00:01.299Z,5.42
2019-01-12T11:05:01.574Z,5.47
2019-01-12T11:10:04.173Z,5.45
2019-01-12T11:15:01.739Z,5.5
2019-01-12T11:20:02.010Z,5.53
2019-01-12T11:25:01.259Z,5.54
2019-01-12T11:30:01.575Z,5.56
2019-01-12T11:35:01.861Z,5.57
2019-01-12T11:40:01.123Z,5.57
2019-01-12T11:45:01.442Z,5.62
2019-01-12T11:50:01.827Z,5.67
2019-01-12T11:55:01.140Z,5.77
2019-01-12T12:00:01.442Z,5.87
2019-01-12T12:05:01.726Z,5.96
2019-01-12T12:10:01.997Z,6.05
2019-01-12T12:15:01.249Z,6.13
2019-01-12T12:20:01.570Z,6.14
2019-01-12T12:25:01.911Z,6.23
2019-01-12T12:30:01.213Z,6.25
2019-01-12T12:35:01.523Z,6.27
2019-01-12T12:40:01.819Z,6.26
2019-01-12T12:45:02.079Z,6.28
2019-01-12T12:50:01.385Z,6.21
2019-01-12T12:55:01.673Z,6.2
2019-01-12T13:00:01.956Z,6.04
2019-01-12T13:05:01.250Z,5.86
2019-01-12T13:10:01.522Z,5.75
2019-01-12T13:15:01.809Z,5.72
2019-01-12T13:20:02.038Z,5.71
2019-01-12T13:25:01.307Z,5.75
2019-01-12T13:30:01.716Z,5.72
2019-01-12T13:35:02.002Z,5.78
2019-01-12T13:40:01.327Z,5.83
2019-01-12T13:45:01.606Z,5.9
2019-01-12T13:50:01.905Z,5.87
2019-01-12T13:55:01.174Z,5.9
2019-01-12T14:00:01.526Z,5.83
2019-01-12T14:05:01.827Z,5.79
2019-01-12T14:10:02.053Z,5.77
2019-01-12T14:15:01.296Z,5.92
2019-01-12T14:20:01.456Z,5.74
2019-01-12T14:25:01.751Z,5.72
2019-01-12T14:30:02.008Z,5.8
2019-01-12T14:35:01.264Z,5.79
2019-01-12T14:40:01.582Z,5.79
2019-01-12T14:45:01.851Z,5.79
2019-01-12T14:50:01.105Z,5.8
2019-01-12T14:55:01.391Z,5.79
2019-01-12T15:00:01.691Z,5.74
2019-01-12T15:05:02.096Z,5.72
2019-01-12T15:10:01.476Z,5.83
2019-01-12T15:15:01.774Z,5.76
2019-01-12T15:20:02.067Z,5.89
2019-01-12T15:25:01.308Z,5.91
2019-01-12T15:30:01.603Z,5.96
2019-01-12T15:35:01.915Z,5.84
2019-01-12T15:40:01.196Z,5.87
2019-01-12T15:45:01.484Z,5.97
2019-01-12T15:50:01.773Z,6
2019-01-12T15:55:02.057Z,6.02
2019-01-12T16:00:01.298Z,5.92
2019-01-12T16:05:01.573Z,5.95
2019-01-12T16:10:01.824Z,6.11
2019-01-12T16:15:01.123Z,6.06
2019-01-12T16:20:01.390Z,6.13
2019-01-12T16:25:01.686Z,6.22
2019-01-12T16:30:01.930Z,6.28
2019-01-12T16:35:01.226Z,6.35
2019-01-12T16:40:01.519Z,6.4
2019-01-12T16:45:01.809Z,6.49
2019-01-12T16:50:01.119Z,6.53
2019-01-12T16:55:01.416Z,6.55
2019-01-12T17:00:01.710Z,6.57
2019-01-12T17:05:02.218Z,6.6
2019-01-12T17:10:01.593Z,6.59
2019-01-12T17:15:01.882Z,6.63
2019-01-12T17:20:01.203Z,6.61
2019-01-12T17:25:01.552Z,6.6
2019-01-12T17:30:01.866Z,6.44
2019-01-12T17:35:01.143Z,6.43
2019-01-12T17:40:01.428Z,6.5
2019-01-12T17:45:01.737Z,6.56
2019-01-12T17:50:01.994Z,6.54
2019-01-12T17:55:01.291Z,6.53
2019-01-12T18:00:01.579Z,6.42
2019-01-12T18:05:01.874Z,6.5
2019-01-12T18:10:01.119Z,6.45
2019-01-12T18:15:01.389Z,6.31
2019-01-12T18:20:01.665Z,6.4
2019-01-12T18:25:01.967Z,6.35
2019-01-12T18:30:01.191Z,6.35
2019-01-12T18:35:01.491Z,6.27
2019-01-12T18:40:01.779Z,6.1
2019-01-12T18:45:02.050Z,6.09
2019-01-12T18:50:01.295Z,6.06
2019-01-12T18:55:01.626Z,6.02
2019-01-12T19:00:01.939Z,6.05
2019-01-12T19:05:01.244Z,6.08
2019-01-12T19:10:01.566Z,6.05
2019-01-12T19:15:01.894Z,6.02
2019-01-12T19:20:01.213Z,6.04
2019-01-12T19:25:01.488Z,6.06
2019-01-12T19:30:01.739Z,6.16
2019-01-12T19:35:02.016Z,6.27
2019-01-12T19:40:01.258Z,6.27
2019-01-12T19:45:01.541Z,6.28
2019-01-12T19:50:01.852Z,6.3
2019-01-12T19:55:01.132Z,6.33
2019-01-12T20:00:01.416Z,6.35
2019-01-12T20:05:01.764Z,6.46
2019-01-12T20:10:02.050Z,6.51
2019-01-12T20:15:01.310Z,6.53
2019-01-12T20:20:01.590Z,6.55
2019-01-12T20:25:01.848Z,6.5
2019-01-12T20:30:02.093Z,6.51
2019-01-12T20:35:01.363Z,6.54
2019-01-12T20:40:01.654Z,6.55
2019-01-12T20:45:01.942Z,6.36
2019-01-12T20:50:01.231Z,6.37
2019-01-12T20:55:01.521Z,6.35
2019-01-12T21:00:01.762Z,6.3
2019-01-12T21:05:02.034Z,6.16
2019-01-12T21:10:01.300Z,6.15
2019-01-12T21:15:01.831Z,6.21
2019-01-12T21:20:01.109Z,6.3
2019-01-12T21:25:01.422Z,6.28
2019-01-12T21:30:01.713Z,6.34
2019-01-12T21:35:02.006Z,6.26
2019-01-12T21:40:01.240Z,6.16
2019-01-12T21:45:01.543Z,6.1
2019-01-12T21:50:01.815Z,6.02
2019-01-12T21:55:01.094Z,5.99
2019-01-12T22:00:01.419Z,6.02
2019-01-12T22:05:01.782Z,6.14
2019-01-12T22:10:02.023Z,6.04
2019-01-12T22:15:01.264Z,6.22
2019-01-12T22:20:01.571Z,6.1
2019-01-12T22:25:01.858Z,6.13
2019-01-12T22:30:01.103Z,6.33
2019-01-12T22:35:01.423Z,6.19
2019-01-12T22:40:01.715Z,6.23
2019-01-12T22:45:02.018Z,6.39
2019-01-12T22:50:01.259Z,6.41
2019-01-12T22:55:01.552Z,6.3
2019-01-12T23:00:01.814Z,6.31
2019-01-12T23:05:01.125Z,6.44
2019-01-12T23:10:01.411Z,6.45
2019-01-12T23:15:01.698Z,6.49
2019-01-12T23:20:01.980Z,6.38
2019-01-12T23:25:01.222Z,6.38
2019-01-12T23:30:04.481Z,6.49
2019-01-12T23:35:01.272Z,6.42
2019-01-12T23:40:01.588Z,6.35
2019-01-12T23:45:01.876Z,6.38
2019-01-12T23:50:01.145Z,6.51
2019-01-12T23:55:01.433Z,6.38
